Time;durP1;ratioP1;P1;durP2;ratioP2;P2;SDS_P1;SDS_P2;PMS_P1;PMS_P2;Temp;Humidity;BMP_temperature;BMP_pressure;BME280_temperature;BME280_humidity;BME280_pressure;Samples;Min_cycle;Max_cycle;Signal;HPM_P1;HPM_P2
2020/12/15 00:00:09;;;;;;;31.73;19.55;;;;;;;1.80;89.23;97742.89;1795094;80;21407;-74
2020/12/15 00:02:36;;;;;;;37.70;24.27;;;;;;;1.82;89.37;97750.09;1811594;79;20995;-74
2020/12/15 00:05:05;;;;;;;42.00;27.75;;;;;;;1.87;89.40;97751.17;1795321;79;20948;-74
2020/12/15 00:07:32;;;;;;;34.98;21.33;;;;;;;1.86;89.15;97741.36;1811601;78;21629;-74
2020/12/15 00:10:00;;;;;;;37.28;21.05;;;;;;;1.89;89.28;97739.94;1795160;80;20942;-74
2020/12/15 00:12:27;;;;;;;39.13;22.17;;;;;;;1.90;89.18;97732.66;1811688;79;21114;-74
2020/12/15 00:14:55;;;;;;;38.23;23.75;;;;;;;1.88;89.07;97733.59;1795024;80;21454;-74
2020/12/15 00:17:22;;;;;;;35.17;21.33;;;;;;;1.86;88.90;97738.80;1811653;79;20924;-74
2020/12/15 00:19:50;;;;;;;36.88;21.42;;;;;;;1.84;88.92;97736.75;1795201;79;21095;-74
2020/12/15 00:22:17;;;;;;;35.87;22.23;;;;;;;1.85;89.06;97728.61;1811535;79;20948;-74
2020/12/15 00:24:45;;;;;;;38.95;24.30;;;;;;;1.86;89.08;97733.66;1795225;80;20930;-74
2020/12/15 00:27:12;;;;;;;38.58;24.27;;;;;;;1.87;89.19;97728.92;1811595;78;20931;-74
2020/12/15 00:29:39;;;;;;;43.67;23.07;;;;;;;1.90;89.11;97732.66;1795186;79;21064;-74
2020/12/15 00:32:09;;;;;;;44.63;23.10;;;;;;;1.92;88.96;97734.70;1811633;79;21082;-74
2020/12/15 00:34:37;;;;;;;43.63;22.87;;;;;;;1.89;88.83;97734.80;1795209;80;21151;-74
2020/12/15 00:37:08;;;;;;;35.23;18.82;;;;;;;1.88;88.89;97741.29;1811451;79;20988;-74
2020/12/15 00:39:35;;;;;;;37.50;20.10;;;;;;;1.86;88.91;97745.20;1795253;78;21036;-74
2020/12/15 00:42:03;;;;;;;34.20;19.32;;;;;;;1.85;88.93;97748.67;1811699;79;20935;-74
2020/12/15 00:44:30;;;;;;;34.43;19.87;;;;;;;1.86;88.99;97745.20;1795188;80;21332;-74
2020/12/15 00:46:58;;;;;;;35.52;21.00;;;;;;;1.88;88.98;97751.55;1811495;79;21091;-74
2020/12/15 00:49:25;;;;;;;30.37;19.00;;;;;;;1.88;88.93;97748.53;1795185;80;21017;-74
2020/12/15 00:51:52;;;;;;;35.35;19.02;;;;;;;1.90;88.96;97753.17;1811541;78;21422;-74
2020/12/15 00:54:19;;;;;;;33.88;20.65;;;;;;;1.89;88.71;97753.21;1795165;80;21288;-74
2020/12/15 00:56:47;;;;;;;33.80;20.10;;;;;;;1.86;88.67;97752.90;1811579;78;21369;-74
2020/12/15 00:59:15;;;;;;;30.45;17.82;;;;;;;1.83;88.69;97750.47;1795104;80;20988;-74
2020/12/15 01:01:42;;;;;;;30.23;18.52;;;;;;;1.80;88.68;97753.14;1811655;79;20991;-74
2020/12/15 01:04:10;;;;;;;34.83;22.00;;;;;;;1.77;88.83;97752.00;1795236;78;20921;-74
2020/12/15 01:06:39;;;;;;;32.53;19.87;;;;;;;1.78;89.06;97750.27;1811665;79;20896;-74
2020/12/15 01:09:07;;;;;;;34.30;22.80;;;;;;;1.82;89.26;97753.08;1795153;80;21885;-74
2020/12/15 01:11:35;;;;;;;37.38;22.93;;;;;;;1.84;89.09;97751.30;1811530;79;21421;-74
2020/12/15 01:14:04;;;;;;;37.93;22.50;;;;;;;1.84;88.93;97754.70;1811237;78;20893;-74
2020/12/15 01:16:33;;;;;;;34.48;22.25;;;;;;;1.84;89.02;97759.00;1795026;79;21056;-74
2020/12/15 01:19:02;;;;;;;32.15;20.77;;;;;;;1.81;89.00;97750.96;1811546;78;20939;-74
2020/12/15 01:21:31;;;;;;;33.28;19.92;;;;;;;1.80;88.98;97749.30;1811446;79;21975;-73
2020/12/15 01:24:00;;;;;;;29.50;19.40;;;;;;;1.82;89.06;97746.66;1795132;78;21336;-73
2020/12/15 01:26:29;;;;;;;31.57;21.25;;;;;;;1.82;89.06;97750.09;1811513;79;20924;-73
2020/12/15 01:28:56;;;;;;;37.03;22.05;;;;;;;1.82;88.96;97753.08;1795135;78;20912;-73
2020/12/15 01:31:26;;;;;;;34.57;21.93;;;;;;;1.83;89.08;97745.34;1811593;79;20911;-73
2020/12/15 01:34:02;;;;;;;36.23;22.25;;;;;;;1.80;88.98;97746.73;1793197;80;21988;-73
2020/12/15 01:36:32;;;;;;;36.95;23.70;;;;;;;1.80;89.11;97749.30;1808906;79;21338;-74
2020/12/15 01:39:01;;;;;;;34.85;15.48;;;;;;;1.83;89.16;97753.48;1811156;79;20935;-74
2020/12/15 01:41:46;;;;;;;30.32;18.75;;;;;;;1.82;89.09;97746.66;1779310;80;20996;-74
2020/12/15 01:44:13;;;;;;;30.08;18.73;;;;;;;1.82;89.14;97748.81;1811571;79;20868;-74
2020/12/15 01:46:42;;;;;;;29.65;19.10;;;;;;;1.84;89.14;97750.86;1811467;78;21274;-74
2020/12/15 01:49:11;;;;;;;29.48;18.77;;;;;;;1.87;89.19;97748.60;1795058;78;20949;-74
2020/12/15 01:51:47;;;;;;;28.40;17.50;;;;;;;1.85;88.97;97746.11;1810043;79;20939;-74
2020/12/15 01:54:14;;;;;;;28.27;16.85;;;;;;;1.85;88.92;97737.13;1795119;80;21024;-74
2020/12/15 01:56:43;;;;;;;28.60;17.15;;;;;;;1.85;88.84;97742.27;1811240;79;20928;-74
2020/12/15 01:59:18;;;;;;;29.85;16.23;;;;;;;1.82;88.82;97741.12;1811341;79;21264;-73
2020/12/15 02:01:46;;;;;;;25.70;14.40;;;;;;;1.80;88.74;97736.92;1795070;79;21386;-73
2020/12/15 02:04:16;;;;;;;27.35;15.48;;;;;;;1.75;88.89;97734.57;1810476;78;20999;-73
2020/12/15 02:06:47;;;;;;;27.25;15.30;;;;;;;1.76;89.03;97745.20;1785636;79;21441;-74
2020/12/15 02:09:16;;;;;;;29.48;16.32;;;;;;;1.76;88.99;97741.36;1811656;79;20990;-73
2020/12/15 02:11:46;;;;;;;26.53;15.87;;;;;;;1.75;89.11;97740.98;1810340;79;21642;-73
2020/12/15 02:14:14;;;;;;;28.02;16.35;;;;;;;1.73;89.08;97742.75;1768926;80;20953;-73
2020/12/15 02:16:42;;;;;;;27.00;15.98;;;;;;;1.72;89.04;97745.39;1786520;79;21220;-73
2020/12/15 02:19:15;;;;;;;27.20;15.80;;;;;;;1.69;89.12;97754.05;1771066;80;20929;-74
2020/12/15 02:22:02;;;;;;;26.48;15.60;;;;;;;1.66;89.15;97746.48;1809398;79;20908;-74
2020/12/15 02:24:31;;;;;;;24.80;14.03;;;;;;;1.63;89.21;97744.03;1809158;79;21625;-74
2020/12/15 02:27:00;;;;;;;23.47;14.40;;;;;;;1.60;89.43;97749.30;1808199;79;21070;-74
2020/12/15 02:29:29;;;;;;;26.93;14.83;;;;;;;1.59;89.60;97746.34;1808541;79;21392;-74
2020/12/15 02:31:57;;;;;;;29.05;16.10;;;;;;;1.58;89.60;97747.25;1809217;79;20979;-74
2020/12/15 02:34:27;;;;;;;34.03;17.20;;;;;;;1.56;89.85;97746.45;1809262;79;21010;-74
2020/12/15 02:36:55;;;;;;;29.43;15.83;;;;;;;1.56;89.91;97743.89;1809240;79;21417;-74
2020/12/15 02:39:24;;;;;;;27.15;16.27;;;;;;;1.55;89.79;97743.52;1807597;79;20944;-74
2020/12/15 02:41:55;;;;;;;27.48;13.90;;;;;;;1.50;89.87;97739.03;1806981;79;21023;-74
2020/12/15 02:44:24;;;;;;;27.20;13.18;;;;;;;1.49;90.05;97742.47;1809186;79;20904;-75
2020/12/15 02:46:53;;;;;;;28.47;11.87;;;;;;;1.47;90.11;97737.86;1808242;79;21078;-75
2020/12/15 02:49:21;;;;;;;31.02;14.75;;;;;;;1.46;90.15;97741.32;1795417;79;22304;-75
2020/12/15 02:51:49;;;;;;;30.50;13.30;;;;;;;1.48;90.38;97744.20;1809139;78;21416;-74
2020/12/15 02:54:17;;;;;;;34.63;14.17;;;;;;;1.53;90.33;97743.58;1806855;79;21134;-74
2020/12/15 02:56:45;;;;;;;28.53;15.03;;;;;;;1.56;90.16;97741.33;1809212;79;21444;-75
2020/12/15 02:59:12;;;;;;;37.87;14.93;;;;;;;1.53;89.92;97747.42;1809254;79;21314;-75
2020/12/15 03:01:41;;;;;;;36.30;14.43;;;;;;;1.51;89.88;97747.11;1809205;79;21187;-75
2020/12/15 03:04:09;;;;;;;31.03;13.87;;;;;;;1.46;89.94;97748.56;1809235;79;21003;-75
2020/12/15 03:06:38;;;;;;;28.90;12.73;;;;;;;1.45;90.10;97752.47;1809057;79;21456;-74
2020/12/15 03:09:09;;;;;;;34.17;12.73;;;;;;;1.44;90.18;97757.22;1809126;79;20944;-73
2020/12/15 03:11:38;;;;;;;30.50;13.32;;;;;;;1.41;90.20;97753.05;1809132;79;20999;-73
2020/12/15 03:14:09;;;;;;;28.17;11.70;;;;;;;1.37;90.35;97761.74;1808568;79;21702;-73
2020/12/15 03:16:36;;;;;;;29.50;12.15;;;;;;;1.37;90.41;97761.30;1810504;77;20975;-74
2020/12/15 03:19:04;;;;;;;30.90;12.85;;;;;;;1.34;90.31;97761.42;1770407;81;21044;-73
2020/12/15 03:21:35;;;;;;;38.20;13.57;;;;;;;1.32;90.38;97765.75;1770157;79;20881;-74
2020/12/15 03:24:04;;;;;;;20.45;9.88;;;;;;;1.31;90.28;97761.53;1770221;81;21067;-75
2020/12/15 03:26:31;;;;;;;23.97;10.80;;;;;;;1.30;90.33;97762.88;1770167;81;22032;-75
2020/12/15 03:29:00;;;;;;;27.10;11.43;;;;;;;1.28;90.29;97766.78;1770089;79;21347;-74
2020/12/15 03:31:28;;;;;;;23.30;10.70;;;;;;;1.24;90.28;97758.84;1770143;81;20968;-74
2020/12/15 03:33:56;;;;;;;24.03;10.23;;;;;;;1.26;90.46;97769.03;1770258;81;21335;-74
2020/12/15 03:36:23;;;;;;;26.17;12.70;;;;;;;1.29;90.64;97770.18;1770408;80;20928;-74
2020/12/15 03:38:50;;;;;;;24.43;11.63;;;;;;;1.33;90.62;97767.45;1770451;80;22389;-74
2020/12/15 03:41:17;;;;;;;23.87;10.07;;;;;;;1.35;90.38;97777.63;1770377;79;20980;-74
2020/12/15 03:43:52;;;;;;;24.87;10.73;;;;;;;1.36;90.30;97780.58;1769353;79;20920;-73
2020/12/15 03:46:24;;;;;;;23.52;9.85;;;;;;;1.33;90.07;97781.55;1768998;81;21019;-73
2020/12/15 03:48:53;;;;;;;20.30;8.60;;;;;;;1.27;89.97;97782.22;1770364;79;20924;-73
2020/12/15 03:51:21;;;;;;;19.63;8.10;;;;;;;1.23;90.11;97784.05;1770347;81;21360;-73
2020/12/15 03:54:06;;;;;;;18.03;8.87;;;;;;;1.21;90.14;97779.89;1770289;81;21010;-73
2020/12/15 03:56:35;;;;;;;26.85;11.90;;;;;;;1.18;90.19;97775.73;1770252;79;21193;-73
2020/12/15 03:59:03;;;;;;;20.53;9.87;;;;;;;1.18;90.42;97782.13;1740162;81;21082;-73
2020/12/15 04:01:32;;;;;;;22.10;10.50;;;;;;;1.20;90.38;97780.78;1770376;81;21024;-73
2020/12/15 04:04:01;;;;;;;17.73;9.27;;;;;;;1.16;90.31;97787.77;1770395;79;21784;-73
2020/12/15 04:06:30;;;;;;;19.67;9.83;;;;;;;1.13;90.35;97782.74;1769054;81;21489;-74
2020/12/15 04:08:59;;;;;;;17.63;9.27;;;;;;;1.08;90.56;97782.11;1769144;79;21122;-73
2020/12/15 04:11:26;;;;;;;16.73;8.67;;;;;;;1.06;90.65;97786.42;1770371;81;21062;-74
2020/12/15 04:13:53;;;;;;;18.80;9.07;;;;;;;1.03;90.84;97782.71;1770356;81;21047;-73
2020/12/15 04:16:21;;;;;;;21.70;9.13;;;;;;;1.07;91.04;97780.41;1740099;81;21372;-75
2020/12/15 04:18:50;;;;;;;19.67;8.57;;;;;;;1.06;90.93;97786.42;1768418;79;20945;-73
2020/12/15 04:21:18;;;;;;;20.08;9.13;;;;;;;1.00;90.94;97789.24;1770400;81;21020;-74
2020/12/15 04:23:45;;;;;;;20.73;8.70;;;;;;;0.93;91.16;97797.59;1770374;79;21019;-74
2020/12/15 04:26:14;;;;;;;18.73;8.33;;;;;;;0.91;91.22;97794.27;1770264;80;21038;-74
2020/12/15 04:28:44;;;;;;;17.47;8.53;;;;;;;0.89;91.27;97792.63;1769718;81;22108;-74
2020/12/15 04:31:11;;;;;;;15.80;8.57;;;;;;;0.91;91.55;97802.36;1770265;80;20925;-74
2020/12/15 04:33:39;;;;;;;18.30;9.10;;;;;;;0.94;91.61;97802.27;1770313;81;20960;-74
2020/12/15 04:36:06;;;;;;;18.57;9.35;;;;;;;0.97;91.70;97804.70;1770251;81;21125;-74
2020/12/15 04:38:35;;;;;;;19.73;10.85;;;;;;;1.01;91.77;97803.72;1770341;79;20912;-74
2020/12/15 04:41:04;;;;;;;18.10;9.10;;;;;;;1.02;91.77;97807.49;1769614;81;21217;-74
2020/12/15 04:43:33;;;;;;;17.80;8.23;;;;;;;0.99;91.52;97808.03;1769301;81;21078;-74
2020/12/15 04:46:01;;;;;;;18.90;8.97;;;;;;;0.93;91.61;97804.45;1770261;80;21055;-73
2020/12/15 04:48:31;;;;;;;16.60;7.93;;;;;;;0.88;91.71;97812.73;1770259;81;20968;-74
2020/12/15 04:51:00;;;;;;;17.63;8.97;;;;;;;0.83;91.83;97805.23;1769479;79;21053;-74
2020/12/15 04:53:29;;;;;;;16.33;8.00;;;;;;;0.80;92.10;97805.33;1770085;80;22389;-74
2020/12/15 04:55:58;;;;;;;18.12;9.05;;;;;;;0.81;92.33;97796.75;1767657;80;21136;-74
2020/12/15 04:58:27;;;;;;;20.07;9.87;;;;;;;0.86;92.48;97799.16;1770369;81;20992;-74
2020/12/15 05:00:56;;;;;;;22.93;12.00;;;;;;;0.87;92.41;97799.55;1716781;81;21169;-73
2020/12/15 05:03:28;;;;;;;22.30;9.77;;;;;;;0.87;92.43;97804.66;1769147;81;21102;-74
2020/12/15 05:05:55;;;;;;;18.67;9.33;;;;;;;0.86;92.41;97812.79;1740160;81;21384;-74
2020/12/15 05:08:23;;;;;;;23.77;11.63;;;;;;;0.81;92.33;97812.11;1770224;81;21339;-73
2020/12/15 05:10:52;;;;;;;19.43;9.33;;;;;;;0.77;92.58;97816.52;1769404;81;21086;-74
2020/12/15 05:13:23;;;;;;;21.83;10.57;;;;;;;0.76;92.59;97819.14;1711126;81;20904;-74
2020/12/15 05:15:57;;;;;;;21.53;9.33;;;;;;;0.77;92.82;97828.05;1771812;79;21102;-74
2020/12/15 05:18:26;;;;;;;23.23;10.83;;;;;;;0.79;92.84;97819.02;1781685;80;21216;-74
2020/12/15 05:20:55;;;;;;;20.07;10.37;;;;;;;0.78;92.92;97825.87;1763261;80;21528;-75
2020/12/15 05:23:24;;;;;;;19.07;9.50;;;;;;;0.79;93.01;97830.55;1787385;80;21068;-74
2020/12/15 05:26:03;;;;;;;20.97;10.57;;;;;;;0.77;93.06;97833.16;1787230;80;21045;-75
2020/12/15 05:28:32;;;;;;;20.63;9.83;;;;;;;0.76;93.06;97832.78;1786607;79;21058;-74
2020/12/15 05:31:00;;;;;;;20.63;9.73;;;;;;;0.78;93.17;97830.98;1787594;80;22155;-75
2020/12/15 05:33:36;;;;;;;16.93;8.30;;;;;;;0.79;93.06;97833.11;1783867;80;21148;-75
2020/12/15 05:36:20;;;;;;;20.43;9.80;;;;;;;0.78;92.95;97839.95;1787573;80;20999;-73
2020/12/15 05:39:07;;;;;;;23.90;9.25;;;;;;;0.76;92.96;97835.34;1785523;80;21093;-74
2020/12/15 05:41:45;;;;;;;20.90;10.10;;;;;;;0.73;92.87;97834.15;1785397;80;21619;-74
2020/12/15 05:44:26;;;;;;;21.17;10.67;;;;;;;0.68;93.02;97830.94;1787673;80;21763;-74
2020/12/15 05:47:01;;;;;;;21.03;9.57;;;;;;;0.71;93.27;97832.09;1787446;80;21054;-74
2020/12/15 05:49:32;;;;;;;17.53;9.10;;;;;;;0.74;93.21;97831.98;1787493;80;20983;-74
2020/12/15 05:52:00;;;;;;;18.23;9.30;;;;;;;0.77;93.37;97830.61;1787451;80;21384;-74
2020/12/15 05:54:29;;;;;;;19.83;9.13;;;;;;;0.81;93.44;97832.15;1787329;80;20990;-73
2020/12/15 05:57:05;;;;;;;22.60;10.08;;;;;;;0.87;93.53;97834.11;1802980;78;21420;-75
2020/12/15 05:59:33;;;;;;;23.90;10.50;;;;;;;0.91;93.40;97836.93;1811834;77;21142;-74
2020/12/15 06:02:09;;;;;;;21.60;11.03;;;;;;;0.93;93.09;97839.85;1811760;78;21029;-75
2020/12/15 06:04:40;;;;;;;23.97;12.53;;;;;;;0.92;92.96;97837.35;1817439;78;21125;-75
2020/12/15 06:07:10;;;;;;;24.03;10.73;;;;;;;0.91;92.97;97841.64;1805269;78;21105;-73
2020/12/15 06:09:37;;;;;;;23.27;10.88;;;;;;;0.92;92.99;97842.02;1804683;78;23593;-75
2020/12/15 06:12:05;;;;;;;23.47;11.30;;;;;;;0.95;92.93;97848.75;1806612;78;21156;-74
2020/12/15 06:14:33;;;;;;;22.82;11.65;;;;;;;0.99;92.99;97850.30;1808188;78;21171;-74
2020/12/15 06:17:03;;;;;;;23.63;9.80;;;;;;;1.05;92.92;97855.20;1783709;79;21047;-82
2020/12/15 06:19:30;;;;;;;24.27;10.38;;;;;;;1.07;92.54;97850.84;1794081;78;21147;-79
2020/12/15 06:21:59;;;;;;;23.85;10.20;;;;;;;1.04;92.46;97851.80;1821785;77;21630;-81
2020/12/15 06:24:30;;;;;;;20.73;9.47;;;;;;;1.07;92.53;97858.53;1819879;77;21193;-78
2020/12/15 06:27:00;;;;;;;17.10;8.90;;;;;;;1.05;92.21;97860.33;1835193;77;21018;-80
2020/12/15 06:29:33;;;;;;;17.90;9.37;;;;;;;0.98;91.95;97864.83;1818914;78;21148;-78
2020/12/15 06:32:02;;;;;;;17.73;8.60;;;;;;;0.90;91.95;97868.55;1788405;79;21561;-79
2020/12/15 06:34:31;;;;;;;18.57;8.53;;;;;;;0.84;92.25;97867.07;1837330;76;21343;-79
2020/12/15 06:36:59;;;;;;;21.00;10.50;;;;;;;0.84;92.63;97866.63;1829615;77;21179;-83
2020/12/15 06:39:28;;;;;;;24.63;9.87;;;;;;;0.86;92.72;97870.85;1851297;77;21115;-81
2020/12/15 06:42:00;;;;;;;32.30;10.57;;;;;;;0.84;92.70;97870.47;1830656;76;21165;-83
2020/12/15 06:44:34;;;;;;;24.73;10.80;;;;;;;0.87;92.86;97867.40;1812638;77;21534;-83
2020/12/15 06:47:09;;;;;;;22.60;9.38;;;;;;;0.89;92.71;97878.41;1827522;76;21612;-86
2020/12/15 06:49:39;;;;;;;29.90;15.70;;;;;;;0.86;92.64;97883.66;1825656;77;21500;-82
2020/12/15 06:52:07;;;;;;;19.87;9.97;;;;;;;0.82;92.65;97887.59;1770980;79;21155;-80
2020/12/15 06:54:39;;;;;;;22.87;11.35;;;;;;;0.86;92.88;97888.78;1793532;79;21031;-80
2020/12/15 06:57:10;;;;;;;18.97;9.67;;;;;;;0.91;92.95;97894.14;1785668;79;21135;-82
2020/12/15 06:59:40;;;;;;;26.60;10.87;;;;;;;0.95;92.91;97894.41;1793775;78;21918;-78
2020/12/15 07:02:14;;;;;;;33.87;14.93;;;;;;;1.01;92.75;97900.59;1796849;79;21165;-81
2020/12/15 07:04:53;;;;;;;30.48;13.80;;;;;;;1.07;92.63;97903.36;1787894;79;21589;-80
2020/12/15 07:07:21;;;;;;;16.50;8.23;;;;;;;1.08;92.30;97908.90;1792628;79;21155;-82
2020/12/15 07:09:49;;;;;;;19.83;9.73;;;;;;;1.06;92.08;97899.96;1788132;78;21166;-80
2020/12/15 07:12:21;;;;;;;22.95;10.55;;;;;;;1.05;92.20;97903.86;1756189;79;21653;-78
2020/12/15 07:14:50;;;;;;;21.15;10.65;;;;;;;1.08;92.34;97903.33;1795386;78;21189;-77
2020/12/15 07:17:17;;;;;;;32.35;13.13;;;;;;;1.13;92.24;97902.70;1783944;77;21170;-78
2020/12/15 07:19:45;;;;;;;28.05;12.43;;;;;;;1.20;92.18;97900.75;1769576;79;21135;-78
2020/12/15 07:22:12;;;;;;;29.05;14.38;;;;;;;1.26;92.03;97903.55;1792237;79;21130;-82
2020/12/15 07:24:45;;;;;;;23.20;9.93;;;;;;;1.27;91.66;97908.61;1798085;79;21410;-78
2020/12/15 07:27:24;;;;;;;23.73;9.77;;;;;;;1.27;91.29;97907.33;1853324;77;22522;-79
2020/12/15 07:29:54;;;;;;;18.67;8.87;;;;;;;1.15;91.14;97908.20;1727235;81;21077;-76
2020/12/15 07:32:22;;;;;;;16.17;8.70;;;;;;;1.10;91.22;97909.67;1740603;82;21275;-77
2020/12/15 07:35:13;;;;;;;22.23;10.03;;;;;;;1.10;91.55;97912.23;1755796;80;21403;-80
2020/12/15 07:37:41;;;;;;;21.13;9.30;;;;;;;1.12;91.45;97921.52;1732846;81;21024;-76
2020/12/15 08:15:04;;;;;;;21.90;11.53;;;;;;;2.16;88.21;97910.33;1711036;83;22695;-83
2020/12/15 08:17:32;;;;;;;22.58;10.80;;;;;;;2.11;87.94;97913.52;1680115;83;21023;-79
2020/12/15 08:20:07;;;;;;;24.95;11.45;;;;;;;2.03;88.00;97912.98;1684172;84;21217;-80
2020/12/15 08:22:39;;;;;;;31.17;11.75;;;;;;;1.96;87.98;97908.09;1644702;86;21043;-80
2020/12/15 08:25:11;;;;;;;38.55;10.95;;;;;;;1.91;88.18;97909.19;1685418;85;21070;-82
2020/12/15 08:27:41;;;;;;;19.52;10.70;;;;;;;1.85;87.99;97909.41;1685066;84;21113;-83
2020/12/15 08:30:18;;;;;;;20.62;9.25;;;;;;;1.76;87.89;97912.34;1685539;84;21459;-81
2020/12/15 08:32:54;;;;;;;17.73;9.00;;;;;;;1.71;88.45;97908.66;1822525;77;22756;-81
2020/12/15 08:35:43;;;;;;;17.12;9.60;;;;;;;1.62;88.91;97917.98;1793260;80;20988;-78
2020/12/15 08:38:11;;;;;;;20.48;9.73;;;;;;;1.63;89.33;97915.80;1729653;80;21220;-80
2020/12/15 08:40:39;;;;;;;22.67;9.68;;;;;;;1.63;89.13;97921.77;1795011;80;20988;-79
2020/12/15 08:43:09;;;;;;;17.73;8.98;;;;;;;1.62;89.04;97923.95;1805399;79;21049;-82
2020/12/15 08:45:35;;;;;;;20.12;10.48;;;;;;;1.60;88.87;97932.59;1809647;78;21031;-80
2020/12/15 08:48:23;;;;;;;19.25;9.78;;;;;;;1.53;88.89;97929.42;1857353;77;21020;-78
2020/12/15 08:50:50;;;;;;;17.98;8.95;;;;;;;1.51;88.87;97932.50;1836914;77;22079;-81
2020/12/15 08:53:18;;;;;;;16.00;9.15;;;;;;;1.43;88.62;97927.27;1830882;77;21044;-79
2020/12/15 08:55:46;;;;;;;17.62;9.68;;;;;;;1.35;89.02;97924.98;1813567;78;21111;-80
2020/12/15 08:58:13;;;;;;;18.45;9.75;;;;;;;1.33;89.22;97930.17;1819499;78;21163;-78
2020/12/15 09:00:44;;;;;;;23.07;11.35;;;;;;;1.33;89.25;97925.05;1810907;78;21470;-79
2020/12/15 09:03:18;;;;;;;19.25;10.65;;;;;;;1.32;89.30;97929.75;1812981;78;21382;-80
2020/12/15 09:05:57;;;;;;;22.15;10.88;;;;;;;1.31;89.41;97927.25;1808281;78;21199;-80
2020/12/15 09:08:25;;;;;;;20.45;10.38;;;;;;;1.29;89.18;97930.33;1810141;78;21028;-80
2020/12/15 09:10:55;;;;;;;17.17;10.05;;;;;;;1.23;89.51;97926.25;1819088;78;21175;-79
2020/12/15 09:13:22;;;;;;;19.92;10.18;;;;;;;1.26;90.19;97928.72;1826154;78;21525;-79
2020/12/15 09:15:55;;;;;;;18.25;9.70;;;;;;;1.29;90.20;97927.31;1811625;78;22176;-79
2020/12/15 09:18:32;;;;;;;19.10;9.98;;;;;;;1.30;90.21;97928.16;1809655;78;21167;-79
2020/12/15 09:21:17;;;;;;;22.30;9.80;;;;;;;1.34;90.13;97929.73;1824502;78;21050;-78
2020/12/15 09:23:51;;;;;;;27.77;13.43;;;;;;;1.36;90.19;97926.20;1813271;78;21546;-80
2020/12/15 09:26:20;;;;;;;24.00;13.95;;;;;;;1.45;90.31;97934.45;1822734;78;21076;-80
2020/12/15 09:28:49;;;;;;;23.18;13.38;;;;;;;1.49;90.07;97933.42;1812231;78;22067;-81
2020/12/15 09:31:18;;;;;;;21.37;11.48;;;;;;;1.52;90.11;97933.33;1817307;77;21180;-79
2020/12/15 09:33:46;;;;;;;23.83;13.30;;;;;;;1.52;90.17;97925.19;1808788;78;21143;-82
2020/12/15 09:36:14;;;;;;;20.30;11.50;;;;;;;1.59;90.15;97925.80;1800528;78;21135;-80
2020/12/15 09:38:41;;;;;;;23.45;11.68;;;;;;;1.62;90.06;97925.67;1803741;78;21095;-80
2020/12/15 09:41:08;;;;;;;18.65;9.65;;;;;;;1.65;89.82;97921.70;1801265;78;21379;-79
2020/12/15 09:43:36;;;;;;;21.77;12.15;;;;;;;1.63;89.59;97923.05;1800885;78;21155;-80
2020/12/15 09:46:04;;;;;;;17.75;10.30;;;;;;;1.60;89.58;97922.34;1802024;78;21061;-78
2020/12/15 09:48:31;;;;;;;19.62;10.18;;;;;;;1.54;89.43;97920.83;1806200;78;21163;-78
2020/12/15 09:51:00;;;;;;;19.87;9.73;;;;;;;1.49;89.57;97915.48;1815263;78;21190;-78
2020/12/15 09:53:32;;;;;;;19.55;10.70;;;;;;;1.46;89.49;97920.73;1807478;78;21186;-80
2020/12/15 09:56:00;;;;;;;20.45;10.35;;;;;;;1.40;89.78;97917.94;1805739;78;21144;-79
2020/12/15 09:58:30;;;;;;;22.07;12.00;;;;;;;1.38;90.16;97919.28;1835836;77;21498;-82
2020/12/15 10:01:00;;;;;;;27.90;13.32;;;;;;;1.39;90.60;97914.55;1794875;78;21126;-80
2020/12/15 10:03:27;;;;;;;31.12;15.18;;;;;;;1.47;90.73;97922.41;1804337;78;21115;-79
2020/12/15 10:05:55;;;;;;;26.17;12.18;;;;;;;1.48;90.74;97912.09;1821557;78;21361;-81
2020/12/15 10:08:22;;;;;;;24.67;12.98;;;;;;;1.55;90.75;97919.11;1810258;78;21146;-81
2020/12/15 10:10:50;;;;;;;24.65;12.80;;;;;;;1.58;90.34;97913.44;1818185;78;20934;-79
2020/12/15 10:13:18;;;;;;;18.95;10.48;;;;;;;1.59;90.28;97909.97;1826578;78;21055;-79
2020/12/15 10:15:49;;;;;;;23.43;11.57;;;;;;;1.64;90.28;97909.78;1808650;78;21163;-80
2020/12/15 10:18:20;;;;;;;27.25;13.13;;;;;;;1.64;89.97;97908.50;1827175;77;21816;-79
2020/12/15 10:21:04;;;;;;;22.57;12.17;;;;;;;1.70;90.31;97901.86;1806527;77;22680;-79
2020/12/15 10:23:35;;;;;;;23.55;12.00;;;;;;;1.69;89.99;97901.03;1801892;78;21048;-82
2020/12/15 10:26:05;;;;;;;29.45;14.75;;;;;;;1.71;89.72;97903.53;1811375;78;21365;-77
2020/12/15 10:28:32;;;;;;;21.30;12.30;;;;;;;1.69;89.61;97905.33;1783300;80;20986;-80
2020/12/15 10:30:59;;;;;;;23.75;10.82;;;;;;;1.70;89.31;97909.55;1778397;79;21019;-81
2020/12/15 10:33:31;;;;;;;23.75;11.05;;;;;;;1.60;88.73;97906.52;1784994;78;21409;-81
2020/12/15 10:36:05;;;;;;;22.77;12.07;;;;;;;1.57;89.23;97904.49;1783856;78;21064;-80
2020/12/15 10:38:47;;;;;;;27.67;13.18;;;;;;;1.62;89.51;97901.32;1791585;78;21219;-78
2020/12/15 10:41:15;;;;;;;25.48;14.07;;;;;;;1.67;89.53;97898.14;1788594;79;20959;-80
2020/12/15 10:43:43;;;;;;;30.20;13.78;;;;;;;1.73;89.62;97898.33;1792939;79;21040;-80
2020/12/15 10:46:12;;;;;;;28.70;13.15;;;;;;;1.76;89.20;97904.65;1785619;79;21151;-82
2020/12/15 10:48:40;;;;;;;25.97;13.78;;;;;;;1.76;89.28;97900.34;1790849;79;21021;-81
2020/12/15 10:51:07;;;;;;;24.00;12.55;;;;;;;1.73;89.10;97897.89;1798130;78;21190;-82
2020/12/15 10:53:34;;;;;;;20.48;10.90;;;;;;;1.68;88.95;97897.25;1783740;79;21191;-83
2020/12/15 10:56:01;;;;;;;22.45;11.18;;;;;;;1.63;89.09;97898.69;1769882;79;21181;-79
2020/12/15 10:58:28;;;;;;;23.35;10.45;;;;;;;1.59;89.06;97892.03;1814599;79;21088;-81
2020/12/15 11:00:56;;;;;;;25.40;12.25;;;;;;;1.57;89.06;97899.36;1780834;79;21179;-82
2020/12/15 11:03:24;;;;;;;22.07;10.77;;;;;;;1.49;88.77;97894.98;1777169;80;21272;-82
2020/12/15 11:05:51;;;;;;;24.43;10.97;;;;;;;1.39;88.89;97894.05;1802259;79;21144;-79
2020/12/15 11:08:20;;;;;;;22.20;10.60;;;;;;;1.35;89.19;97888.66;1775276;79;21348;-81
2020/12/15 11:10:53;;;;;;;19.30;9.40;;;;;;;1.34;89.13;97886.99;1767165;80;21174;-80
2020/12/15 11:13:33;;;;;;;21.77;11.60;;;;;;;1.29;89.15;97886.77;1764543;79;21573;-82
2020/12/15 11:16:02;;;;;;;23.18;11.15;;;;;;;1.26;89.45;97881.77;1776232;79;22102;-81
2020/12/15 11:18:30;;;;;;;26.25;11.48;;;;;;;1.29;89.95;97882.47;1789530;79;20985;-79
2020/12/15 11:20:58;;;;;;;30.95;16.57;;;;;;;1.31;89.93;97875.56;1804383;77;21670;-80
2020/12/15 11:23:25;;;;;;;25.48;13.58;;;;;;;1.35;90.02;97878.41;1847065;77;21148;-80
2020/12/15 11:25:54;;;;;;;30.05;15.70;;;;;;;1.38;90.06;97871.05;1819143;78;21152;-79
2020/12/15 11:28:21;;;;;;;32.08;17.35;;;;;;;1.42;90.13;97875.63;1802008;78;22223;-80
2020/12/15 11:30:49;;;;;;;29.23;14.03;;;;;;;1.44;89.87;97878.51;1800162;77;21163;-80
2020/12/15 11:33:17;;;;;;;21.23;11.75;;;;;;;1.45;89.92;97883.19;1791952;79;21168;-81
2020/12/15 11:35:45;;;;;;;25.20;15.50;;;;;;;1.49;90.06;97882.16;1776711;79;21636;-80
2020/12/15 11:38:12;;;;;;;24.70;13.18;;;;;;;1.53;90.06;97886.30;1790622;78;21646;-81
2020/12/15 11:40:39;;;;;;;22.60;11.93;;;;;;;1.57;90.07;97883.98;1789189;78;22112;-81
2020/12/15 11:43:07;;;;;;;24.80;11.08;;;;;;;1.61;89.85;97881.70;1788617;78;21384;-81
2020/12/15 11:45:36;;;;;;;22.67;11.40;;;;;;;1.62;89.60;97880.81;1810108;78;21160;-82
2020/12/15 11:48:04;;;;;;;28.23;13.95;;;;;;;1.64;89.52;97874.72;1822027;78;20989;-82
2020/12/15 11:50:31;;;;;;;19.57;10.32;;;;;;;1.64;89.34;97876.45;1822766;78;21175;-79
2020/12/15 11:52:59;;;;;;;23.83;11.53;;;;;;;1.61;89.29;97870.17;1819843;78;21590;-80
2020/12/15 11:55:27;;;;;;;27.30;12.78;;;;;;;1.55;89.15;97872.52;1791340;78;21063;-78
2020/12/15 11:57:54;;;;;;;28.52;14.45;;;;;;;1.53;89.55;97873.47;1819060;78;20977;-80
2020/12/15 12:00:21;;;;;;;27.98;12.20;;;;;;;1.57;89.78;97875.88;1810457;78;21423;-81
2020/12/15 12:02:48;;;;;;;30.00;13.22;;;;;;;1.62;89.90;97870.55;1799460;78;21100;-81
2020/12/15 12:05:21;;;;;;;27.30;12.53;;;;;;;1.65;89.71;97866.58;1808100;78;21418;-81
2020/12/15 12:07:50;;;;;;;32.63;20.32;;;;;;;1.69;89.60;97869.42;1806551;78;21056;-81
2020/12/15 12:10:20;;;;;;;75.52;51.50;;;;;;;1.69;89.58;97871.54;1795271;78;21008;-79
2020/12/15 12:12:49;;;;;;;71.45;47.93;;;;;;;1.74;89.71;97872.66;1770651;79;21140;-83